Startpagina
METAR-TAF:

METAR-TAF

Vliegvelden :

Småland Airport

Växjö, Zweden

breedte: 56-51N, lengte: 014-50E, hoogte: 199 m

Actueel weer

Dit bericht is 30 minuten geleden gemaakt, om 09:50 UTC
Wind 5 kt uit het noorden, variërend tussen het noordwesten en het noordnoordoosten
Temperatuur 16°C
Vochtigheid 72%
Druk 1013 hPa
Zicht 10 km of meer

METAR: ESMX 170950Z AUTO 35005KT 320V020 9999 BKN028/// OVC037/// 16/11 Q1013

Tijdstip: 12:20 (10:20 UTC)

Verwachting

Dit bericht is 1 uur en het 50 minuten geleden gemaakt, om 08:30 UTC
Verwachting geldig van 17 om 09 UTC tot 17 om 18 UTC
Wind 8 kt uit het noordnoordwesten
Zicht 10 km of meer
Gebroken wolken op 2000 ft

TAF: ESMX 170830Z 1709/1718 34008KT 9999 BKN020

Waarnemingen en weersverwachtingen van meer dan 4000 vliegvelden (METAR en TAF).

De beschikbare stations zijn de gele en rode punten op de kaart.

Ga met uw muis naar het station om de naam te zien.

Klik dan om waarnemingen en weersverwachtingen te zien.

kaart wijzigen: klik op de groene knoppen met een zwart kruis om in te zoomen, op de groene knop met een streepje om uit te zoomen of op de groene pijlen voor aangrenzende kaarten.


METAR-TAF: